Terminal Aerodrome Forecast
Issued by NWS

Home | Current Version | Previous Version | Text Only | Print | Product List | Glossary On
Versions: 1 2 3 4 5 6 7 8 9 10 11 12 13 14 15 16 17 18 19 20
000
FTUS42 KTBW 222014 AAA
TAFPIE
TAF AMD
KPIE 222014Z 2220/2318 18012KT P6SM SCT035 BKN060 BKN150
     FM230000 16005KT 6SM BR VCSH SCT010 BKN050 OVC100
     FM230400 17006KT 4SM SHRA BR SCT005 BKN015
     FM231400 20009KT 4SM SHRA BR BKN015=

USA.gov is the U.S. government's official web portal to all federal, state and local government web resources and services.